Big Piney River (Missouri), Fort Leonard Wood (06930060)

StateMissouriLatestLow (437 cfs)
RiverBig Piney RiverRatingObservedEstimated
Updated2020-07-13 19:00 (1 hour ago)Flood - The river is flooding. Obstacles can be treacherous or deadly. The river should be avoided at this stage for casual trips and definitely for the inexperienced. Trips should be attempted only with protective gear and equipment.Flood(none)3031
Discharge437 cfs (median: 226 cfs)High - The river is high and potentially dangerous, especially for the young and / or inexperienced. Normal stream obstacles are sometimes difficult to navigate. Extended distances can be attempted, but canoe travel may not be advisable.High(none)1449
Height2.47 feetGood - Conditions are ideal for a canoe or kayak. Boats typically will drag on fewer than one-quarter of riffles, if at all, and portages are unnecessary or rare. Normal float lengths can be attempted without a problem.Good(none)638
TrendFalling (falling over 24 hours)Low - River is low but can still be floated. Some riffles are okay but most come with significant dragging and might need a portage. Float lengths should be reduced to accommodate low flow, dragging, and portages.Low(none)385
USGSExternal icon USGS Site (External icon Google Maps)Poor - River is too low to float comfortably. Most or all riffles will drag or must be portaged and some obstacles (such as slick shelf rock) cause undue problems. Avoid the river at this stage for casual paddling trips.Poor(none)204

Trending Data

Plot Image

Trips for Big Piney River (Missouri), Fort Leonard Wood (06930060)

DateStartEndDistanceConditionDischargeHeightFishingDetails

A total of 0 rows are displayed.

Condition Descriptions

Fishing Conditions

Fish Species

Notes

Classic Trip List

The classic River Trips application is still available for use. It is updated with the new system using a data retrofit. It is no longer maintained. The original River Trips application is no longer updated (as of 1 Dec 2016) but can be checked for errors or for the condition of the data before it was converted to the new system.

Gauge Data Table

ObservationHeightDischargeMaximum
Discharge
Minimum
Discharge
Mean
Discharge
P05P10P20P25P50
(Median)
P75P80P90P95
2020-07-13 19:00 2.47 437 2810 (2015) 145 (2000) 418 146 157 163 172 226 331 387 1070 2730
2020-07-13 18:00 2.48 440 2810 (2015) 145 (2000) 418 146 157 163 172 226 331 387 1070 2730
2020-07-13 17:00 2.49 444 2810 (2015) 145 (2000) 418 146 157 163 172 226 331 387 1070 2730
2020-07-13 16:00 2.48 440 2810 (2015) 145 (2000) 418 146 157 163 172 226 331 387 1070 2730
2020-07-13 15:00 2.49 444 2810 (2015) 145 (2000) 418 146 157 163 172 226 331 387 1070 2730
2020-07-13 14:00 2.48 440 2810 (2015) 145 (2000) 418 146 157 163 172 226 331 387 1070 2730
2020-07-13 13:00 2.48 440 2810 (2015) 145 (2000) 418 146 157 163 172 226 331 387 1070 2730
2020-07-13 12:00 2.47 437 2810 (2015) 145 (2000) 418 146 157 163 172 226 331 387 1070 2730
2020-07-13 11:00 2.49 444 2810 (2015) 145 (2000) 418 146 157 163 172 226 331 387 1070 2730
2020-07-13 10:00 2.49 444 2810 (2015) 145 (2000) 418 146 157 163 172 226 331 387 1070 2730
2020-07-13 09:00 2.48 440 2810 (2015) 145 (2000) 418 146 157 163 172 226 331 387 1070 2730
2020-07-13 08:00 2.48 440 2810 (2015) 145 (2000) 418 146 157 163 172 226 331 387 1070 2730
2020-07-13 07:00 2.50 448 2810 (2015) 145 (2000) 418 146 157 163 172 226 331 387 1070 2730
2020-07-13 06:00 2.50 448 2810 (2015) 145 (2000) 418 146 157 163 172 226 331 387 1070 2730
2020-07-13 05:00 2.50 448 2810 (2015) 145 (2000) 418 146 157 163 172 226 331 387 1070 2730
2020-07-13 04:00 2.49 444 2810 (2015) 145 (2000) 418 146 157 163 172 226 331 387 1070 2730
2020-07-13 03:00 2.50 448 2810 (2015) 145 (2000) 418 146 157 163 172 226 331 387 1070 2730
2020-07-13 02:00 2.48 440 2810 (2015) 145 (2000) 418 146 157 163 172 226 331 387 1070 2730
2020-07-13 01:00 2.48 440 2810 (2015) 145 (2000) 418 146 157 163 172 226 331 387 1070 2730
2020-07-13 00:00 2.48 440 2810 (2015) 145 (2000) 418 146 157 163 172 226 331 387 1070 2730
2020-07-12 23:00 2.50 448 5290 (2015) 137 (2000) 585 138 159 164 174 233 343 382 1770 5120
2020-07-12 22:00 2.50 448 5290 (2015) 137 (2000) 585 138 159 164 174 233 343 382 1770 5120
2020-07-12 21:00 2.51 452 5290 (2015) 137 (2000) 585 138 159 164 174 233 343 382 1770 5120
2020-07-12 20:00 2.50 448 5290 (2015) 137 (2000) 585 138 159 164 174 233 343 382 1770 5120
2020-07-12 19:00 2.50 448 5290 (2015) 137 (2000) 585 138 159 164 174 233 343 382 1770 5120
2020-07-12 18:00 2.50 448 5290 (2015) 137 (2000) 585 138 159 164 174 233 343 382 1770 5120
2020-07-12 17:00 2.50 448 5290 (2015) 137 (2000) 585 138 159 164 174 233 343 382 1770 5120
2020-07-12 16:00 2.50 448 5290 (2015) 137 (2000) 585 138 159 164 174 233 343 382 1770 5120
2020-07-12 15:00 2.51 452 5290 (2015) 137 (2000) 585 138 159 164 174 233 343 382 1770 5120
2020-07-12 14:00 2.50 448 5290 (2015) 137 (2000) 585 138 159 164 174 233 343 382 1770 5120
2020-07-12 13:00 2.51 452 5290 (2015) 137 (2000) 585 138 159 164 174 233 343 382 1770 5120
2020-07-12 12:00 2.52 456 5290 (2015) 137 (2000) 585 138 159 164 174 233 343 382 1770 5120
2020-07-12 11:00 2.52 456 5290 (2015) 137 (2000) 585 138 159 164 174 233 343 382 1770 5120
2020-07-12 10:00 2.52 456 5290 (2015) 137 (2000) 585 138 159 164 174 233 343 382 1770 5120
2020-07-12 09:00 2.52 456 5290 (2015) 137 (2000) 585 138 159 164 174 233 343 382 1770 5120
2020-07-12 08:00 2.52 456 5290 (2015) 137 (2000) 585 138 159 164 174 233 343 382 1770 5120
2020-07-12 07:00 2.52 456 5290 (2015) 137 (2000) 585 138 159 164 174 233 343 382 1770 5120
2020-07-12 06:00 2.52 456 5290 (2015) 137 (2000) 585 138 159 164 174 233 343 382 1770 5120
2020-07-12 05:00 2.54 463 5290 (2015) 137 (2000) 585 138 159 164 174 233 343 382 1770 5120
2020-07-12 04:00 2.52 456 5290 (2015) 137 (2000) 585 138 159 164 174 233 343 382 1770 5120
2020-07-12 03:00 2.52 456 5290 (2015) 137 (2000) 585 138 159 164 174 233 343 382 1770 5120
2020-07-12 02:00 2.52 456 5290 (2015) 137 (2000) 585 138 159 164 174 233 343 382 1770 5120
2020-07-12 01:00 2.52 456 5290 (2015) 137 (2000) 585 138 159 164 174 233 343 382 1770 5120
2020-07-12 00:00 2.52 456 5290 (2015) 137 (2000) 585 138 159 164 174 233 343 382 1770 5120
2020-07-11 23:00 2.53 460 20700 (2015) 130 (2000) 1320 131 146 160 177 228 361 385 1060 19700
2020-07-11 22:00 2.54 463 20700 (2015) 130 (2000) 1320 131 146 160 177 228 361 385 1060 19700
2020-07-11 21:00 2.53 460 20700 (2015) 130 (2000) 1320 131 146 160 177 228 361 385 1060 19700
2020-07-11 20:00 2.55 467 20700 (2015) 130 (2000) 1320 131 146 160 177 228 361 385 1060 19700
2020-07-11 19:00 2.52 456 20700 (2015) 130 (2000) 1320 131 146 160 177 228 361 385 1060 19700
2020-07-11 18:00 2.56 471 20700 (2015) 130 (2000) 1320 131 146 160 177 228 361 385 1060 19700
2020-07-11 17:00 2.54 463 20700 (2015) 130 (2000) 1320 131 146 160 177 228 361 385 1060 19700
2020-07-11 16:00 2.55 467 20700 (2015) 130 (2000) 1320 131 146 160 177 228 361 385 1060 19700
2020-07-11 15:00 2.54 463 20700 (2015) 130 (2000) 1320 131 146 160 177 228 361 385 1060 19700
2020-07-11 14:00 2.55 467 20700 (2015) 130 (2000) 1320 131 146 160 177 228 361 385 1060 19700
2020-07-11 13:00 2.54 463 20700 (2015) 130 (2000) 1320 131 146 160 177 228 361 385 1060 19700
2020-07-11 12:00 2.56 471 20700 (2015) 130 (2000) 1320 131 146 160 177 228 361 385 1060 19700
2020-07-11 11:00 2.55 467 20700 (2015) 130 (2000) 1320 131 146 160 177 228 361 385 1060 19700
2020-07-11 10:00 2.53 460 20700 (2015) 130 (2000) 1320 131 146 160 177 228 361 385 1060 19700
2020-07-11 09:00 2.55 467 20700 (2015) 130 (2000) 1320 131 146 160 177 228 361 385 1060 19700
2020-07-11 08:00 2.54 463 20700 (2015) 130 (2000) 1320 131 146 160 177 228 361 385 1060 19700
2020-07-11 07:00 2.56 471 20700 (2015) 130 (2000) 1320 131 146 160 177 228 361 385 1060 19700
2020-07-11 06:00 2.56 471 20700 (2015) 130 (2000) 1320 131 146 160 177 228 361 385 1060 19700
2020-07-11 05:00 2.54 463 20700 (2015) 130 (2000) 1320 131 146 160 177 228 361 385 1060 19700
2020-07-11 04:00 2.53 460 20700 (2015) 130 (2000) 1320 131 146 160 177 228 361 385 1060 19700
2020-07-11 03:00 2.57 475 20700 (2015) 130 (2000) 1320 131 146 160 177 228 361 385 1060 19700
2020-07-11 02:00 2.54 463 20700 (2015) 130 (2000) 1320 131 146 160 177 228 361 385 1060 19700
2020-07-11 01:00 2.56 471 20700 (2015) 130 (2000) 1320 131 146 160 177 228 361 385 1060 19700
2020-07-11 00:00 2.55 467 20700 (2015) 130 (2000) 1320 131 146 160 177 228 361 385 1060 19700
2020-07-10 23:00 2.57 475 6680 (2015) 136 (2000) 577 136 141 163 176 224 332 378 554 6370
2020-07-10 22:00 2.56 471 6680 (2015) 136 (2000) 577 136 141 163 176 224 332 378 554 6370
2020-07-10 21:00 2.56 471 6680 (2015) 136 (2000) 577 136 141 163 176 224 332 378 554 6370
2020-07-10 20:00 2.58 479 6680 (2015) 136 (2000) 577 136 141 163 176 224 332 378 554 6370
2020-07-10 19:00 2.57 475 6680 (2015) 136 (2000) 577 136 141 163 176 224 332 378 554 6370
2020-07-10 18:00 2.57 475 6680 (2015) 136 (2000) 577 136 141 163 176 224 332 378 554 6370
2020-07-10 17:00 2.57 475 6680 (2015) 136 (2000) 577 136 141 163 176 224 332 378 554 6370
2020-07-10 16:00 2.58 479 6680 (2015) 136 (2000) 577 136 141 163 176 224 332 378 554 6370
2020-07-10 15:00 2.58 479 6680 (2015) 136 (2000) 577 136 141 163 176 224 332 378 554 6370
2020-07-10 14:00 2.58 479 6680 (2015) 136 (2000) 577 136 141 163 176 224 332 378 554 6370
2020-07-10 13:00 2.58 479 6680 (2015) 136 (2000) 577 136 141 163 176 224 332 378 554 6370
2020-07-10 12:00 2.57 475 6680 (2015) 136 (2000) 577 136 141 163 176 224 332 378 554 6370
2020-07-10 11:00 2.58 479 6680 (2015) 136 (2000) 577 136 141 163 176 224 332 378 554 6370
2020-07-10 10:00 2.57 475 6680 (2015) 136 (2000) 577 136 141 163 176 224 332 378 554 6370
2020-07-10 09:00 2.58 479 6680 (2015) 136 (2000) 577 136 141 163 176 224 332 378 554 6370
2020-07-10 08:00 2.59 482 6680 (2015) 136 (2000) 577 136 141 163 176 224 332 378 554 6370
2020-07-10 07:00 2.59 482 6680 (2015) 136 (2000) 577 136 141 163 176 224 332 378 554 6370
2020-07-10 06:00 2.60 486 6680 (2015) 136 (2000) 577 136 141 163 176 224 332 378 554 6370
2020-07-10 05:00 2.60 486 6680 (2015) 136 (2000) 577 136 141 163 176 224 332 378 554 6370
2020-07-10 04:00 2.59 482 6680 (2015) 136 (2000) 577 136 141 163 176 224 332 378 554 6370
2020-07-10 03:00 2.60 486 6680 (2015) 136 (2000) 577 136 141 163 176 224 332 378 554 6370
2020-07-10 02:00 2.60 486 6680 (2015) 136 (2000) 577 136 141 163 176 224 332 378 554 6370
2020-07-10 01:00 2.59 482 6680 (2015) 136 (2000) 577 136 141 163 176 224 332 378 554 6370
2020-07-10 00:00 2.58 479 6680 (2015) 136 (2000) 577 136 141 163 176 224 332 378 554 6370
2020-07-09 23:00 2.60 486 3690 (2015) 138 (2000) 440 138 146 155 166 236 367 389 620 3540
2020-07-09 22:00 2.59 482 3690 (2015) 138 (2000) 440 138 146 155 166 236 367 389 620 3540
2020-07-09 21:00 2.61 490 3690 (2015) 138 (2000) 440 138 146 155 166 236 367 389 620 3540
2020-07-09 20:00 2.60 486 3690 (2015) 138 (2000) 440 138 146 155 166 236 367 389 620 3540
2020-07-09 19:00 2.58 479 3690 (2015) 138 (2000) 440 138 146 155 166 236 367 389 620 3540
2020-07-09 18:00 2.60 486 3690 (2015) 138 (2000) 440 138 146 155 166 236 367 389 620 3540
2020-07-09 17:00 2.62 494 3690 (2015) 138 (2000) 440 138 146 155 166 236 367 389 620 3540
2020-07-09 16:00 2.62 494 3690 (2015) 138 (2000) 440 138 146 155 166 236 367 389 620 3540
2020-07-09 15:00 2.61 490 3690 (2015) 138 (2000) 440 138 146 155 166 236 367 389 620 3540
2020-07-09 14:00 2.61 490 3690 (2015) 138 (2000) 440 138 146 155 166 236 367 389 620 3540
2020-07-09 13:00 2.60 486 3690 (2015) 138 (2000) 440 138 146 155 166 236 367 389 620 3540
2020-07-09 12:00 2.61 490 3690 (2015) 138 (2000) 440 138 146 155 166 236 367 389 620 3540
2020-07-09 11:00 2.62 494 3690 (2015) 138 (2000) 440 138 146 155 166 236 367 389 620 3540
2020-07-09 10:00 2.63 498 3690 (2015) 138 (2000) 440 138 146 155 166 236 367 389 620 3540
2020-07-09 09:00 2.63 498 3690 (2015) 138 (2000) 440 138 146 155 166 236 367 389 620 3540
2020-07-09 08:00 2.62 494 3690 (2015) 138 (2000) 440 138 146 155 166 236 367 389 620 3540
2020-07-09 07:00 2.63 498 3690 (2015) 138 (2000) 440 138 146 155 166 236 367 389 620 3540
2020-07-09 06:00 2.63 498 3690 (2015) 138 (2000) 440 138 146 155 166 236 367 389 620 3540
2020-07-09 05:00 2.63 498 3690 (2015) 138 (2000) 440 138 146 155 166 236 367 389 620 3540
2020-07-09 04:00 2.62 494 3690 (2015) 138 (2000) 440 138 146 155 166 236 367 389 620 3540
2020-07-09 03:00 2.64 502 3690 (2015) 138 (2000) 440 138 146 155 166 236 367 389 620 3540
2020-07-09 02:00 2.63 498 3690 (2015) 138 (2000) 440 138 146 155 166 236 367 389 620 3540
2020-07-09 01:00 2.64 502 3690 (2015) 138 (2000) 440 138 146 155 166 236 367 389 620 3540
2020-07-09 00:00 2.63 498 3690 (2015) 138 (2000) 440 138 146 155 166 236 367 389 620 3540
2020-07-08 23:00 2.63 498 4440 (2015) 144 (2000) 487 144 148 154 163 252 395 406 732 4260
2020-07-08 22:00 2.65 506 4440 (2015) 144 (2000) 487 144 148 154 163 252 395 406 732 4260
2020-07-08 21:00 2.65 506 4440 (2015) 144 (2000) 487 144 148 154 163 252 395 406 732 4260
2020-07-08 20:00 2.65 506 4440 (2015) 144 (2000) 487 144 148 154 163 252 395 406 732 4260
2020-07-08 19:00 2.66 510 4440 (2015) 144 (2000) 487 144 148 154 163 252 395 406 732 4260
2020-07-08 18:00 2.66 510 4440 (2015) 144 (2000) 487 144 148 154 163 252 395 406 732 4260
2020-07-08 17:00 2.66 510 4440 (2015) 144 (2000) 487 144 148 154 163 252 395 406 732 4260
2020-07-08 16:00 2.66 510 4440 (2015) 144 (2000) 487 144 148 154 163 252 395 406 732 4260
2020-07-08 15:00 2.67 514 4440 (2015) 144 (2000) 487 144 148 154 163 252 395 406 732 4260
2020-07-08 14:00 2.66 510 4440 (2015) 144 (2000) 487 144 148 154 163 252 395 406 732 4260
2020-07-08 13:00 2.68 518 4440 (2015) 144 (2000) 487 144 148 154 163 252 395 406 732 4260
2020-07-08 12:00 2.68 518 4440 (2015) 144 (2000) 487 144 148 154 163 252 395 406 732 4260
2020-07-08 11:00 2.69 522 4440 (2015) 144 (2000) 487 144 148 154 163 252 395 406 732 4260
2020-07-08 10:00 2.70 527 4440 (2015) 144 (2000) 487 144 148 154 163 252 395 406 732 4260
2020-07-08 09:00 2.69 522 4440 (2015) 144 (2000) 487 144 148 154 163 252 395 406 732 4260
2020-07-08 08:00 2.68 518 4440 (2015) 144 (2000) 487 144 148 154 163 252 395 406 732 4260
2020-07-08 07:00 2.67 514 4440 (2015) 144 (2000) 487 144 148 154 163 252 395 406 732 4260
2020-07-08 06:00 2.68 518 4440 (2015) 144 (2000) 487 144 148 154 163 252 395 406 732 4260
2020-07-08 05:00 2.67 514 4440 (2015) 144 (2000) 487 144 148 154 163 252 395 406 732 4260
2020-07-08 04:00 2.67 514 4440 (2015) 144 (2000) 487 144 148 154 163 252 395 406 732 4260
2020-07-08 03:00 2.66 510 4440 (2015) 144 (2000) 487 144 148 154 163 252 395 406 732 4260
2020-07-08 02:00 2.68 518 4440 (2015) 144 (2000) 487 144 148 154 163 252 395 406 732 4260
2020-07-08 01:00 2.67 514 4440 (2015) 144 (2000) 487 144 148 154 163 252 395 406 732 4260
2020-07-08 00:00 2.68 518 4440 (2015) 144 (2000) 487 144 148 154 163 252 395 406 732 4260
2020-07-07 23:00 2.68 518 3520 (2015) 148 (2000) 461 148 151 155 163 255 404 464 916 3390
2020-07-07 22:00 2.66 510 3520 (2015) 148 (2000) 461 148 151 155 163 255 404 464 916 3390
2020-07-07 21:00 2.69 522 3520 (2015) 148 (2000) 461 148 151 155 163 255 404 464 916 3390
2020-07-07 20:00 2.69 522 3520 (2015) 148 (2000) 461 148 151 155 163 255 404 464 916 3390
2020-07-07 19:00 2.70 527 3520 (2015) 148 (2000) 461 148 151 155 163 255 404 464 916 3390
2020-07-07 18:00 2.70 527 3520 (2015) 148 (2000) 461 148 151 155 163 255 404 464 916 3390
2020-07-07 17:00 2.71 531 3520 (2015) 148 (2000) 461 148 151 155 163 255 404 464 916 3390
2020-07-07 16:00 2.71 531 3520 (2015) 148 (2000) 461 148 151 155 163 255 404 464 916 3390
2020-07-07 15:00 2.71 531 3520 (2015) 148 (2000) 461 148 151 155 163 255 404 464 916 3390
2020-07-07 14:00 2.72 535 3520 (2015) 148 (2000) 461 148 151 155 163 255 404 464 916 3390
2020-07-07 13:00 2.72 535 3520 (2015) 148 (2000) 461 148 151 155 163 255 404 464 916 3390
2020-07-07 12:00 2.71 531 3520 (2015) 148 (2000) 461 148 151 155 163 255 404 464 916 3390
2020-07-07 11:00 2.72 535 3520 (2015) 148 (2000) 461 148 151 155 163 255 404 464 916 3390
2020-07-07 10:00 2.74 543 3520 (2015) 148 (2000) 461 148 151 155 163 255 404 464 916 3390
2020-07-07 09:00 2.74 543 3520 (2015) 148 (2000) 461 148 151 155 163 255 404 464 916 3390
2020-07-07 08:00 2.73 539 3520 (2015) 148 (2000) 461 148 151 155 163 255 404 464 916 3390
2020-07-07 07:00 2.74 543 3520 (2015) 148 (2000) 461 148 151 155 163 255 404 464 916 3390
2020-07-07 06:00 2.77 556 3520 (2015) 148 (2000) 461 148 151 155 163 255 404 464 916 3390
2020-07-07 05:00 2.74 543 3520 (2015) 148 (2000) 461 148 151 155 163 255 404 464 916 3390
2020-07-07 04:00 2.76 552 3520 (2015) 148 (2000) 461 148 151 155 163 255 404 464 916 3390
2020-07-07 03:00 2.76 552 3520 (2015) 148 (2000) 461 148 151 155 163 255 404 464 916 3390
2020-07-07 02:00 2.77 556 3520 (2015) 148 (2000) 461 148 151 155 163 255 404 464 916 3390
2020-07-07 01:00 2.76 552 3520 (2015) 148 (2000) 461 148 151 155 163 255 404 464 916 3390
2020-07-07 00:00 2.78 560 3520 (2015) 148 (2000) 461 148 151 155 163 255 404 464 916 3390
2020-07-06 23:00 2.76 552 1470 (2016) 155 (2000) 379 155 156 161 171 264 416 461 1070 1450
2020-07-06 22:00 2.81 574 1470 (2016) 155 (2000) 379 155 156 161 171 264 416 461 1070 1450
2020-07-06 21:00 2.80 569 1470 (2016) 155 (2000) 379 155 156 161 171 264 416 461 1070 1450
2020-07-06 20:00 2.80 569 1470 (2016) 155 (2000) 379 155 156 161 171 264 416 461 1070 1450
2020-07-06 19:00 2.83 582 1470 (2016) 155 (2000) 379 155 156 161 171 264 416 461 1070 1450
2020-07-06 18:00 2.83 582 1470 (2016) 155 (2000) 379 155 156 161 171 264 416 461 1070 1450
2020-07-06 17:00 2.82 578 1470 (2016) 155 (2000) 379 155 156 161 171 264 416 461 1070 1450
2020-07-06 16:00 2.84 587 1470 (2016) 155 (2000) 379 155 156 161 171 264 416 461 1070 1450
2020-07-06 15:00 2.87 601 1470 (2016) 155 (2000) 379 155 156 161 171 264 416 461 1070 1450
2020-07-06 14:00 2.86 596 1470 (2016) 155 (2000) 379 155 156 161 171 264 416 461 1070 1450
2020-07-06 13:00 2.89 610 1470 (2016) 155 (2000) 379 155 156 161 171 264 416 461 1070 1450
2020-07-06 12:00 2.89 610 1470 (2016) 155 (2000) 379 155 156 161 171 264 416 461 1070 1450
2020-07-06 11:00 2.90 614 1470 (2016) 155 (2000) 379 155 156 161 171 264 416 461 1070 1450
2020-07-06 10:00 2.93 628 1470 (2016) 155 (2000) 379 155 156 161 171 264 416 461 1070 1450
2020-07-06 09:00 2.95 638 1470 (2016) 155 (2000) 379 155 156 161 171 264 416 461 1070 1450
2020-07-06 08:00 2.94 633 1470 (2016) 155 (2000) 379 155 156 161 171 264 416 461 1070 1450
2020-07-06 07:00 2.97 647 1470 (2016) 155 (2000) 379 155 156 161 171 264 416 461 1070 1450
2020-07-06 06:00 2.97 647 1470 (2016) 155 (2000) 379 155 156 161 171 264 416 461 1070 1450
2020-07-06 05:00 2.99 657 1470 (2016) 155 (2000) 379 155 156 161 171 264 416 461 1070 1450
2020-07-06 04:00 2.99 657 1470 (2016) 155 (2000) 379 155 156 161 171 264 416 461 1070 1450
2020-07-06 03:00 3.01 667 1470 (2016) 155 (2000) 379 155 156 161 171 264 416 461 1070 1450
2020-07-06 02:00 3.03 677 1470 (2016) 155 (2000) 379 155 156 161 171 264 416 461 1070 1450
2020-07-06 01:00 3.04 682 1470 (2016) 155 (2000) 379 155 156 161 171 264 416 461 1070 1450
2020-07-06 00:00 3.07 697 1470 (2016) 155 (2000) 379 155 156 161 171 264 416 461 1070 1450

A total of 188 rows are displayed for years 2000 through 2019.